createdAt,value
2019-05-02T00:00:12.666Z,99.90
2019-05-02T00:02:41.725Z,99.90
2019-05-02T00:05:12.124Z,99.90
2019-05-02T00:07:42.634Z,99.90
2019-05-02T00:10:14.871Z,99.90
2019-05-02T00:12:44.874Z,99.90
2019-05-02T00:15:15.759Z,99.70
2019-05-02T00:17:44.314Z,99.30
2019-05-02T00:20:15.021Z,99.90
2019-05-02T00:22:43.489Z,99.90
2019-05-02T00:25:15.895Z,99.90
2019-05-02T00:27:42.602Z,99.80
2019-05-02T00:30:13.485Z,99.60
2019-05-02T00:32:41.960Z,99.30
2019-05-02T00:35:10.674Z,98.90
2019-05-02T00:37:39.207Z,98.90
2019-05-02T00:40:08.319Z,98.40
2019-05-02T00:42:36.781Z,98.50
2019-05-02T00:45:06.153Z,98.70
2019-05-02T00:47:47.798Z,98.70
2019-05-02T00:50:16.216Z,98.60
2019-05-02T00:52:44.682Z,98.30
2019-05-02T00:55:13.875Z,98.20
2019-05-02T00:57:42.349Z,98.60
2019-05-02T01:00:13.483Z,98.30
2019-05-02T01:02:55.481Z,98.00
2019-05-02T01:05:24.303Z,97.80
2019-05-02T01:07:56.158Z,98.00
2019-05-02T01:10:23.291Z,97.90
2019-05-02T01:12:51.747Z,97.80
2019-05-02T01:15:20.302Z,98.20
2019-05-02T01:17:48.797Z,97.90
2019-05-02T01:20:17.403Z,97.50
2019-05-02T01:22:47.261Z,97.40
2019-05-02T01:25:17.228Z,97.20
2019-05-02T01:28:03.596Z,97.40
2019-05-02T01:30:37.176Z,97.00
2019-05-02T01:33:11.752Z,97.20
2019-05-02T01:35:44.675Z,97.00
2019-05-02T01:38:31.834Z,97.10
2019-05-02T01:40:57.063Z,97.70
2019-05-02T01:43:30.618Z,96.90
2019-05-02T01:45:59.065Z,96.60
2019-05-02T01:48:27.698Z,97.00
2019-05-02T01:50:56.291Z,96.90
2019-05-02T01:53:29.378Z,97.00
2019-05-02T01:55:57.378Z,96.80
2019-05-02T01:58:25.245Z,97.10
2019-05-02T02:00:53.793Z,96.90
2019-05-02T02:03:22.302Z,97.00
2019-05-02T02:05:50.791Z,96.60
2019-05-02T02:08:19.253Z,96.70
2019-05-02T02:10:50.839Z,97.00
2019-05-02T02:13:18.064Z,97.10
2019-05-02T02:15:46.598Z,98.10
2019-05-02T02:18:16.439Z,97.00
2019-05-02T02:20:52.463Z,96.60
2019-05-02T02:23:28.700Z,96.50
2019-05-02T02:26:11.903Z,96.30
2019-05-02T02:28:41.383Z,96.50
2019-05-02T02:31:09.951Z,96.70
2019-05-02T02:33:41.089Z,97.10
2019-05-02T02:36:08.679Z,96.90
2019-05-02T02:38:37.165Z,97.00
2019-05-02T02:41:06.555Z,96.90
2019-05-02T02:43:35.982Z,97.20
2019-05-02T02:46:23.282Z,97.50
2019-05-02T02:48:51.829Z,97.20
2019-05-02T02:51:24.089Z,97.20
2019-05-02T02:53:50.495Z,97.50
2019-05-02T02:56:18.974Z,97.50
2019-05-02T02:58:48.109Z,97.90
2019-05-02T03:01:27.321Z,97.90
2019-05-02T03:03:47.166Z,97.80
2019-05-02T03:06:15.863Z,97.80
2019-05-02T03:08:48.868Z,98.00
2019-05-02T03:11:22.388Z,98.10
2019-05-02T03:14:05.596Z,98.20
2019-05-02T03:16:26.301Z,97.90
2019-05-02T03:18:54.845Z,98.10
2019-05-02T03:21:23.332Z,97.70
2019-05-02T03:24:02.181Z,97.60
2019-05-02T03:26:22.142Z,97.60
2019-05-02T03:28:57.232Z,97.40
2019-05-02T03:31:24.679Z,97.60
2019-05-02T03:33:55.462Z,97.70
2019-05-02T03:36:35.540Z,97.50
2019-05-02T03:38:52.117Z,97.30
2019-05-02T03:41:23.269Z,97.60
2019-05-02T03:44:09.116Z,97.70
2019-05-02T03:46:22.665Z,97.90
2019-05-02T03:48:51.513Z,98.10
2019-05-02T03:51:24.413Z,97.90
2019-05-02T03:53:50.580Z,98.20
2019-05-02T03:56:19.300Z,97.80
2019-05-02T03:58:56.351Z,97.60
2019-05-02T04:01:19.279Z,97.20
2019-05-02T04:03:48.128Z,97.60
2019-05-02T04:06:21.170Z,98.00
2019-05-02T04:08:47.355Z,98.30
2019-05-02T04:11:21.452Z,98.40
2019-05-02T04:13:51.501Z,97.90
2019-05-02T04:16:20.287Z,97.70
2019-05-02T04:18:55.110Z,98.00
2019-05-02T04:21:24.417Z,98.20
2019-05-02T04:23:49.814Z,98.80
2019-05-02T04:26:18.640Z,98.50
2019-05-02T04:28:51.786Z,98.60
2019-05-02T04:31:17.699Z,98.80
2019-05-02T04:33:46.223Z,98.50
2019-05-02T04:36:17.614Z,98.00
2019-05-02T04:38:51.082Z,97.80
2019-05-02T04:41:27.890Z,97.70
2019-05-02T04:43:54.732Z,97.60
2019-05-02T04:46:21.996Z,97.60
2019-05-02T04:48:49.811Z,97.60
2019-05-02T04:51:19.975Z,97.60
2019-05-02T04:53:49.513Z,97.70
2019-05-02T04:56:18.504Z,97.70
2019-05-02T04:58:49.376Z,97.70
2019-05-02T05:01:17.167Z,97.80
2019-05-02T05:03:49.197Z,97.70
2019-05-02T05:06:18.878Z,98.30
2019-05-02T05:08:48.288Z,98.10
2019-05-02T05:11:21.356Z,98.10
2019-05-02T05:13:47.939Z,98.50
2019-05-02T05:16:18.615Z,98.10
2019-05-02T05:18:49.309Z,98.00
2019-05-02T05:21:17.856Z,98.20
2019-05-02T05:24:01.366Z,97.70
2019-05-02T05:26:29.291Z,97.20
2019-05-02T05:28:58.402Z,97.40
2019-05-02T05:31:29.246Z,98.40
2019-05-02T05:33:57.884Z,97.90
2019-05-02T05:36:32.804Z,97.90
2019-05-02T05:38:58.260Z,97.60
2019-05-02T05:41:27.749Z,96.90
2019-05-02T05:43:57.375Z,97.10
2019-05-02T05:46:27.985Z,98.40
2019-05-02T05:48:58.363Z,99.70
2019-05-02T05:51:27.687Z,97.70
2019-05-02T05:53:59.120Z,97.60
2019-05-02T05:56:27.893Z,98.10
2019-05-02T05:58:58.908Z,97.10
2019-05-02T06:01:33.977Z,97.50
2019-05-02T06:03:58.002Z,98.20
2019-05-02T06:06:27.395Z,97.50
2019-05-02T06:08:56.202Z,97.60
2019-05-02T06:11:24.679Z,98.70
2019-05-02T06:13:53.407Z,99.90
2019-05-02T06:16:21.897Z,98.80
2019-05-02T06:18:50.613Z,98.20
2019-05-02T06:21:19.089Z,98.10
2019-05-02T06:23:47.575Z,98.40
2019-05-02T06:26:16.140Z,97.90
2019-05-02T06:28:44.646Z,97.70
2019-05-02T06:31:13.136Z,97.50
2019-05-02T06:33:41.588Z,97.80
2019-05-02T06:36:10.065Z,97.90
2019-05-02T06:38:38.540Z,99.10
2019-05-02T06:41:07.072Z,98.70
2019-05-02T06:43:35.568Z,98.20
2019-05-02T06:46:15.574Z,97.90
2019-05-02T06:48:34.547Z,97.90
2019-05-02T06:51:03.033Z,97.20
2019-05-02T06:53:34.859Z,96.90
2019-05-02T06:56:01.963Z,97.30
2019-05-02T06:58:30.423Z,97.80
2019-05-02T07:00:59.207Z,97.40
2019-05-02T07:03:27.861Z,97.50
2019-05-02T07:05:58.651Z,97.90
2019-05-02T07:08:26.706Z,97.40
2019-05-02T07:10:56.114Z,97.30
2019-05-02T07:13:25.599Z,97.70
2019-05-02T07:15:55.717Z,97.90
2019-05-02T07:18:25.837Z,98.00
2019-05-02T07:20:54.298Z,98.00
2019-05-02T07:23:22.794Z,97.80
2019-05-02T07:25:51.508Z,97.90
2019-05-02T07:28:19.982Z,98.10
2019-05-02T07:30:48.457Z,98.90
2019-05-02T07:33:16.929Z,98.40
2019-05-02T07:35:45.399Z,98.10
2019-05-02T07:38:13.888Z,98.00
2019-05-02T07:40:42.365Z,98.10
2019-05-02T07:43:13.478Z,98.00
2019-05-02T07:45:45.320Z,97.40
2019-05-02T07:48:12.734Z,97.60
2019-05-02T07:50:46.430Z,97.80
2019-05-02T07:53:14.352Z,98.00
2019-05-02T07:55:42.735Z,97.80
2019-05-02T07:58:11.448Z,97.40
2019-05-02T08:00:40.276Z,97.50
2019-05-02T08:03:08.760Z,97.90
2019-05-02T08:05:37.249Z,97.40
2019-05-02T08:08:05.796Z,97.50
2019-05-02T08:10:34.433Z,97.00
2019-05-02T08:13:02.889Z,96.80
2019-05-02T08:15:31.455Z,97.00
2019-05-02T08:17:59.953Z,97.70
2019-05-02T08:20:28.410Z,96.80
2019-05-02T08:22:56.889Z,97.20
2019-05-02T08:25:25.631Z,97.40
2019-05-02T08:28:05.126Z,97.00
2019-05-02T08:30:40.383Z,96.80
2019-05-02T08:33:07.073Z,97.40
2019-05-02T08:35:35.612Z,97.20
2019-05-02T08:38:04.231Z,97.60
2019-05-02T08:40:32.718Z,96.70
2019-05-02T08:43:03.605Z,96.80
2019-05-02T08:45:33.139Z,96.70
2019-05-02T08:48:05.115Z,96.20
2019-05-02T08:50:33.375Z,96.40
2019-05-02T08:53:01.981Z,96.80
2019-05-02T08:55:30.443Z,96.70
2019-05-02T08:57:58.944Z,96.30
2019-05-02T09:00:32.117Z,95.90
2019-05-02T09:03:02.696Z,96.60
2019-05-02T09:05:28.144Z,97.00
2019-05-02T09:07:56.871Z,97.20
2019-05-02T09:10:25.441Z,96.50
2019-05-02T09:12:53.937Z,96.60
2019-05-02T09:15:22.472Z,96.60
2019-05-02T09:17:56.255Z,95.70
2019-05-02T09:20:23.697Z,96.00
2019-05-02T09:22:55.852Z,96.40
2019-05-02T09:25:22.657Z,96.00
2019-05-02T09:27:52.619Z,95.00
2019-05-02T09:30:22.788Z,95.30
2019-05-02T09:32:52.181Z,96.00
2019-05-02T09:35:23.066Z,95.70
2019-05-02T09:37:52.253Z,95.70
2019-05-02T09:40:22.199Z,95.00
2019-05-02T09:42:53.268Z,94.70
2019-05-02T09:45:35.803Z,94.90
2019-05-02T09:48:07.597Z,94.50
2019-05-02T09:50:35.482Z,94.50
2019-05-02T09:53:04.567Z,95.10
2019-05-02T09:55:33.098Z,94.80
2019-05-02T09:58:02.671Z,94.40
2019-05-02T10:00:36.295Z,94.40
2019-05-02T10:03:03.649Z,93.60
2019-05-02T10:05:32.341Z,92.00
2019-05-02T10:08:03.225Z,93.10
2019-05-02T10:10:32.341Z,92.90
2019-05-02T10:13:02.787Z,93.10
2019-05-02T10:15:32.753Z,93.20
2019-05-02T10:18:08.673Z,92.20
2019-05-02T10:20:36.261Z,91.30
2019-05-02T10:23:02.569Z,92.10
2019-05-02T10:25:38.567Z,91.80
2019-05-02T10:28:02.213Z,91.50
2019-05-02T10:30:35.583Z,90.50
2019-05-02T10:33:03.910Z,90.30
2019-05-02T10:35:40.419Z,91.00
2019-05-02T10:38:04.571Z,90.90
2019-05-02T10:40:33.066Z,89.70
2019-05-02T10:43:02.867Z,90.40
2019-05-02T10:45:32.061Z,90.10
2019-05-02T10:48:02.257Z,89.50
2019-05-02T10:50:32.972Z,89.20
2019-05-02T10:53:05.375Z,88.80
2019-05-02T10:55:33.238Z,89.50
2019-05-02T10:58:02.061Z,89.70
2019-05-02T11:00:32.666Z,90.10
2019-05-02T11:03:12.133Z,88.10
2019-05-02T11:05:42.474Z,89.40
2019-05-02T11:08:12.037Z,89.10
2019-05-02T11:10:42.300Z,88.50
2019-05-02T11:13:21.806Z,88.60
2019-05-02T11:16:09.275Z,89.10
2019-05-02T11:18:55.731Z,85.20
2019-05-02T11:21:24.355Z,84.00
2019-05-02T11:23:52.971Z,84.30
2019-05-02T11:26:25.131Z,84.30
2019-05-02T11:28:52.253Z,82.80
2019-05-02T11:31:21.868Z,82.70
2019-05-02T11:33:52.765Z,84.30
2019-05-02T11:36:22.437Z,84.70
2019-05-02T11:38:58.976Z,84.60
2019-05-02T11:41:22.442Z,84.20
2019-05-02T11:43:54.154Z,85.70
2019-05-02T11:46:22.070Z,85.10
2019-05-02T11:48:56.204Z,84.00
2019-05-02T11:51:22.737Z,83.10
2019-05-02T11:53:52.697Z,83.00
2019-05-02T11:56:22.330Z,82.60
2019-05-02T11:58:52.797Z,85.10
2019-05-02T12:01:34.993Z,82.60
2019-05-02T12:03:52.625Z,83.20
2019-05-02T12:06:22.566Z,84.60
2019-05-02T12:08:52.638Z,84.50
2019-05-02T12:11:22.823Z,82.00
2019-05-02T12:13:55.479Z,84.60
2019-05-02T12:16:22.892Z,84.60
2019-05-02T12:18:53.691Z,85.60
2019-05-02T12:21:22.881Z,83.80
2019-05-02T12:23:52.567Z,84.10
2019-05-02T12:26:22.063Z,83.80
2019-05-02T12:28:52.709Z,83.40
2019-05-02T12:31:32.121Z,82.90
2019-05-02T12:34:02.668Z,84.70
2019-05-02T12:36:33.395Z,83.80
2019-05-02T12:39:02.442Z,82.70
2019-05-02T12:41:33.012Z,83.60
2019-05-02T12:44:02.222Z,82.00
2019-05-02T12:46:31.786Z,81.40
2019-05-02T12:49:02.602Z,82.10
2019-05-02T12:51:31.947Z,82.70
2019-05-02T12:54:02.318Z,82.90
2019-05-02T12:56:32.459Z,81.70
2019-05-02T12:59:02.353Z,80.80
2019-05-02T13:01:33.030Z,81.50
2019-05-02T13:04:03.765Z,81.40
2019-05-02T13:06:32.941Z,82.30
2019-05-02T13:09:03.067Z,82.70
2019-05-02T13:11:36.846Z,82.70
2019-05-02T13:14:04.095Z,83.20
2019-05-02T13:16:33.523Z,83.80
2019-05-02T13:19:05.990Z,82.20
2019-05-02T13:21:42.514Z,83.80
2019-05-02T13:24:13.465Z,84.50
2019-05-02T13:26:42.915Z,83.10
2019-05-02T13:29:11.867Z,83.20
2019-05-02T13:31:53.832Z,84.10
2019-05-02T13:34:26.769Z,84.40
2019-05-02T13:36:57.851Z,85.50
2019-05-02T13:39:44.148Z,85.80
2019-05-02T13:42:13.258Z,84.60
2019-05-02T13:44:45.823Z,83.40
2019-05-02T13:47:15.959Z,83.50
2019-05-02T13:49:53.285Z,84.00
2019-05-02T13:52:14.976Z,83.80
2019-05-02T13:54:43.508Z,83.70
2019-05-02T13:57:12.179Z,84.40
2019-05-02T13:59:41.694Z,84.60
2019-05-02T14:02:31.658Z,84.60
2019-05-02T14:05:02.131Z,84.10
2019-05-02T14:07:32.478Z,84.00
2019-05-02T14:10:02.612Z,83.80
2019-05-02T14:12:52.735Z,83.80
2019-05-02T14:15:23.403Z,84.30
2019-05-02T14:17:52.596Z,84.20
2019-05-02T14:20:22.402Z,84.60
2019-05-02T14:22:52.752Z,83.50
2019-05-02T14:25:22.380Z,85.10
2019-05-02T14:27:53.819Z,85.20
2019-05-02T14:30:35.405Z,83.30
2019-05-02T14:32:52.789Z,83.20
2019-05-02T14:35:28.253Z,83.20
2019-05-02T14:38:09.392Z,83.20
2019-05-02T14:41:03.288Z,84.10
2019-05-02T14:43:53.065Z,82.60
2019-05-02T14:46:22.474Z,83.90
2019-05-02T14:48:52.310Z,83.90
2019-05-02T14:51:27.159Z,84.80
2019-05-02T14:53:52.711Z,83.40
2019-05-02T14:56:43.418Z,84.00
2019-05-02T14:59:15.347Z,84.00
2019-05-02T15:01:46.723Z,84.60
2019-05-02T15:04:12.982Z,85.30
2019-05-02T15:06:45.365Z,85.40
2019-05-02T15:09:12.155Z,85.50
2019-05-02T15:11:46.044Z,85.40
2019-05-02T15:14:18.067Z,84.40
2019-05-02T15:16:45.362Z,86.10
2019-05-02T15:19:14.031Z,85.50
2019-05-02T15:21:47.021Z,85.20
2019-05-02T15:24:12.749Z,85.10
2019-05-02T15:26:41.922Z,84.90
2019-05-02T15:29:12.005Z,84.30
2019-05-02T15:32:03.184Z,84.40
2019-05-02T15:34:35.508Z,82.80
2019-05-02T15:37:02.783Z,84.70
2019-05-02T15:42:01.769Z,85.10
2019-05-02T15:44:31.718Z,84.90
2019-05-02T15:47:05.150Z,84.10
2019-05-02T15:49:36.710Z,83.40
2019-05-02T15:52:03.263Z,83.50
2019-05-02T15:54:32.229Z,82.90
2019-05-02T15:57:03.202Z,83.50
2019-05-02T15:59:43.194Z,83.40
2019-05-02T16:02:07.375Z,82.20
2019-05-02T16:04:37.473Z,80.70
2019-05-02T16:07:08.339Z,82.40
2019-05-02T16:09:36.427Z,82.20
2019-05-02T16:12:05.745Z,82.50
2019-05-02T16:14:36.153Z,82.40
2019-05-02T16:17:04.844Z,82.60
2019-05-02T16:19:34.961Z,82.50
2019-05-02T16:22:11.522Z,82.80
2019-05-02T16:24:43.982Z,82.70
2019-05-02T16:27:11.716Z,81.30
2019-05-02T16:29:41.806Z,81.50
2019-05-02T16:32:13.307Z,81.50
2019-05-02T16:34:54.550Z,81.40
2019-05-02T16:37:22.652Z,80.50
2019-05-02T16:39:51.266Z,80.60
2019-05-02T16:42:19.975Z,80.10
2019-05-02T16:44:48.430Z,80.20
2019-05-02T16:47:17.226Z,80.60
2019-05-02T16:49:48.010Z,81.20
2019-05-02T16:52:16.231Z,81.10
2019-05-02T16:54:44.847Z,81.20
2019-05-02T16:57:17.441Z,80.90
2019-05-02T16:59:43.537Z,82.10
2019-05-02T17:02:12.326Z,82.10
2019-05-02T17:04:42.754Z,85.40
2019-05-02T17:07:13.023Z,87.90
2019-05-02T17:09:43.207Z,90.50
2019-05-02T17:12:15.197Z,92.20
2019-05-02T17:14:51.049Z,93.60
2019-05-02T17:17:13.771Z,95.00
2019-05-02T17:19:42.257Z,95.90
2019-05-02T17:22:12.103Z,96.50
2019-05-02T17:24:41.877Z,97.10
2019-05-02T17:27:13.048Z,97.70
2019-05-02T17:29:42.860Z,97.80
2019-05-02T17:32:11.794Z,98.60
2019-05-02T17:34:42.182Z,99.40
2019-05-02T17:37:12.171Z,99.90
2019-05-02T17:39:42.695Z,99.70
2019-05-02T17:42:12.440Z,99.90
2019-05-02T17:44:41.555Z,99.90
2019-05-02T17:47:11.420Z,99.90
2019-05-02T17:49:42.212Z,99.90
2019-05-02T17:52:19.889Z,99.90
2019-05-02T17:54:45.100Z,99.90
2019-05-02T17:57:13.654Z,99.90
2019-05-02T17:59:42.505Z,99.90
2019-05-02T18:02:12.458Z,99.90
2019-05-02T18:04:41.937Z,99.90
2019-05-02T18:07:11.701Z,99.90
2019-05-02T18:09:41.886Z,99.90
2019-05-02T18:12:12.636Z,99.90
2019-05-02T18:14:42.137Z,99.90
2019-05-02T18:17:12.614Z,99.90
2019-05-02T18:19:42.587Z,99.90
2019-05-02T18:22:23.529Z,99.90
2019-05-02T18:24:42.775Z,99.90
2019-05-02T18:27:12.847Z,99.90
2019-05-02T18:29:45.306Z,99.90
2019-05-02T18:32:12.826Z,99.90
2019-05-02T18:34:41.864Z,99.90
2019-05-02T18:37:10.547Z,99.90
2019-05-02T18:39:45.263Z,99.90
2019-05-02T18:42:11.815Z,99.90
2019-05-02T18:44:41.922Z,99.90
2019-05-02T18:47:12.606Z,99.90
2019-05-02T18:49:41.919Z,99.90
2019-05-02T18:52:11.701Z,99.90
2019-05-02T18:54:45.712Z,99.90
2019-05-02T18:57:11.945Z,99.90
2019-05-02T18:59:42.569Z,99.90
2019-05-02T19:02:11.561Z,99.90
2019-05-02T19:04:42.199Z,99.90
2019-05-02T19:07:14.255Z,99.90
2019-05-02T19:09:50.363Z,99.90
2019-05-02T19:12:19.483Z,99.90
2019-05-02T19:14:41.973Z,99.90
2019-05-02T19:17:12.260Z,99.90
2019-05-02T19:19:41.883Z,99.90
2019-05-02T19:22:13.446Z,99.90
2019-05-02T19:24:41.925Z,99.90
2019-05-02T19:27:12.836Z,99.90
2019-05-02T19:29:42.473Z,99.90
2019-05-02T19:32:12.259Z,99.90
2019-05-02T19:34:41.773Z,99.90
2019-05-02T19:37:12.158Z,99.90
2019-05-02T19:39:44.686Z,99.90
2019-05-02T19:42:12.281Z,99.90
2019-05-02T19:44:42.089Z,99.90
2019-05-02T19:47:15.791Z,99.90
2019-05-02T19:49:42.492Z,99.90
2019-05-02T19:52:12.847Z,99.90
2019-05-02T19:54:43.478Z,99.90
2019-05-02T19:57:11.950Z,99.90
2019-05-02T19:59:40.432Z,99.90
2019-05-02T20:02:09.247Z,99.90
2019-05-02T20:04:42.713Z,99.90
2019-05-02T20:07:08.179Z,99.90
2019-05-02T20:09:38.084Z,99.90
2019-05-02T20:12:10.565Z,99.90
2019-05-02T20:14:38.261Z,99.90
2019-05-02T20:17:09.051Z,99.90
2019-05-02T20:19:39.189Z,99.90
2019-05-02T20:22:09.292Z,99.90
2019-05-02T20:24:39.506Z,99.90
2019-05-02T20:27:08.042Z,99.90
2019-05-02T20:29:36.531Z,99.90
2019-05-02T20:32:05.003Z,99.90
2019-05-02T20:34:33.830Z,99.90
2019-05-02T20:37:02.401Z,99.90
2019-05-02T20:39:31.806Z,99.90
2019-05-02T20:42:02.564Z,99.90
2019-05-02T20:44:32.116Z,99.90
2019-05-02T20:47:02.592Z,99.90
2019-05-02T20:49:31.008Z,99.90
2019-05-02T20:51:59.561Z,99.90
2019-05-02T20:54:28.170Z,99.90
2019-05-02T20:56:56.655Z,99.90
2019-05-02T20:59:25.397Z,99.90
2019-05-02T21:01:53.895Z,99.90
2019-05-02T21:04:22.847Z,99.90
2019-05-02T21:06:58.715Z,99.90
2019-05-02T21:09:28.877Z,99.90
2019-05-02T21:11:59.460Z,99.90
2019-05-02T21:14:27.933Z,99.90
2019-05-02T21:16:56.420Z,99.90
2019-05-02T21:19:24.936Z,99.90
2019-05-02T21:21:53.853Z,99.90
2019-05-02T21:24:22.355Z,99.90
2019-05-02T21:26:52.487Z,99.90
2019-05-02T21:29:22.892Z,99.90
2019-05-02T21:31:51.955Z,99.90
2019-05-02T21:34:22.351Z,99.90
2019-05-02T21:36:51.837Z,99.90
2019-05-02T21:39:22.503Z,99.90
2019-05-02T21:41:51.702Z,99.90
2019-05-02T21:44:22.146Z,99.90
2019-05-02T21:46:51.853Z,99.90
2019-05-02T21:49:40.319Z,99.90
2019-05-02T21:52:28.340Z,99.90
2019-05-02T21:55:12.372Z,99.90
2019-05-02T21:57:40.999Z,99.90
2019-05-02T22:00:13.302Z,99.90
2019-05-02T22:02:41.778Z,99.90
2019-05-02T22:05:10.407Z,99.90
2019-05-02T22:07:39.026Z,99.90
2019-05-02T22:10:08.303Z,99.90
2019-05-02T22:12:36.810Z,99.90
2019-05-02T22:15:05.525Z,99.90
2019-05-02T22:17:34.011Z,99.90
2019-05-02T22:20:02.513Z,99.90
2019-05-02T22:22:31.782Z,99.90
2019-05-02T22:25:02.270Z,99.90
2019-05-02T22:27:32.483Z,99.90
2019-05-02T22:30:02.114Z,99.90
2019-05-02T22:32:32.139Z,99.90
2019-05-02T22:35:01.864Z,99.90
2019-05-02T22:37:32.598Z,99.90
2019-05-02T22:40:03.966Z,99.90
2019-05-02T22:42:32.568Z,99.90
2019-05-02T22:45:01.601Z,99.90
2019-05-02T22:47:32.112Z,99.90
2019-05-02T22:50:00.666Z,99.90
2019-05-02T22:52:29.142Z,99.90
2019-05-02T22:54:57.638Z,99.90
2019-05-02T22:57:26.090Z,99.90
2019-05-02T22:59:54.575Z,99.90
2019-05-02T23:02:23.071Z,99.90
2019-05-02T23:04:52.623Z,99.90
2019-05-02T23:07:22.202Z,99.90
2019-05-02T23:09:52.653Z,99.90
2019-05-02T23:12:22.536Z,99.90
2019-05-02T23:14:52.288Z,99.90
2019-05-02T23:17:23.015Z,99.90
2019-05-02T23:19:52.731Z,99.90
2019-05-02T23:22:21.835Z,99.90
2019-05-02T23:25:04.612Z,99.90
2019-05-02T23:27:34.719Z,99.90
2019-05-02T23:30:04.109Z,99.90
2019-05-02T23:32:32.574Z,99.90
2019-05-02T23:35:01.914Z,99.90
2019-05-02T23:37:32.498Z,99.90
2019-05-02T23:40:01.962Z,99.90
2019-05-02T23:42:30.684Z,99.90
2019-05-02T23:44:59.165Z,99.90
2019-05-02T23:47:27.641Z,99.90
2019-05-02T23:49:56.402Z,99.90
2019-05-02T23:52:24.892Z,99.90
2019-05-02T23:54:53.349Z,99.90
2019-05-02T23:57:22.929Z,99.90
2019-05-02T23:59:51.876Z,99.90
